Terminal Aerodrome Forecast
Issued by NWS

Home | Current Version | Previous Version | Text Only | Print | Product List | Glossary On
Versions: 1 2 3 4 5 6 7 8 9 10 11 12 13 14 15 16 17 18 19 20 21 22 23 24 25 26 27 28 29 30 31 32 33 34 35 36 37 38 39 40 41 42 43 44 45
000
FTUS42 KMFL 182348
TAFMIA
TAF
KMIA 182348Z 1900/2006 12011KT P6SM SCT025 BKN050 BKN250 PROB30
      1909/1912 6SM SHRA SCT015 BKN035
     FM191200 17015G25KT P6SM VCSH SCT025 BKN050 BKN250
     FM191700 19020G30KT P6SM VCTS SCT025CB BKN050
     FM192100 20020G30KT 6SM SHRA VCTS SCT025CB BKN040
     FM200300 22020G30KT 6SM SHRA VCTS SCT015 BKN025CB=

USA.gov is the U.S. government's official web portal to all federal, state and local government web resources and services.